Details From KPWT - Bremerton National
To KCLM - William R Fairchild Intl
Flight Number -
Tags Routegen Generated
Created
Modified
Stats Distance 51 nm / 95 km
Max Altitude 200 ft / 61 m
Waypoints 5
Social Downloads 2
Likes 0
Share VATSIM

Download

Looking for another format? Having issues loading an existing format? Contact us
Advertisement - Login to hide

Notes

Departing runway 3 KPWT. Arriving runway 10 KCLM.

Route

KPWT +47.56_-122.70 +47.83_-123.04 +48.10_-123.38 KCLM

ID Type Via Altitude Latitude Longitude Leg Dist Tot Dist Heading (true) Name
O KPWT APT - 200 ft / 61 m 47.49716˚ -122.75825˚ - 0 nm - -
+47.56_-122.70 DME - 200 ft / 61 m 47.55804˚ -122.70032˚ 4 nm 4 nm 33° / 33° -
+47.83_-123.04 DME - 200 ft / 61 m 47.82818˚ -123.04093˚ 21 nm 25 nm 320° / 320° -
+48.10_-123.38 DME - 200 ft / 61 m 48.09833˚ -123.38153˚ 21 nm 46 nm 320° / 320° -
O KCLM APT - 0 ft / 0 m 48.11666˚ -123.48637˚ 4 nm 51 nm 285° / 285° -

Altitude Profile

Advertisement - Login to hide

KPWT

Details ICAO KPWT (PWT)
Name Bremerton National
Region United States
Timezone America/Los_Angeles (UTC-7.0)
Stats Elevation 444 ft / 135 m (AMSL)
Location 47.490240° -122.764815°
Runways 1
Magnetic Variation 15.713° E

METAR

KPWT 242156Z AUTO VRB06KT 10SM BKN026 19/12 A3008 RMK AO2 SLP200 T01940122

Decode

TAF

TAF KPWT 241738Z 2418/2518 19006KT P6SM BKN018 OVC025 FM241900 19005KT P6SM BKN030 FM242200 20006KT P6SM SCT040 FM250100 04005KT P6SM SCT040 FM251100 VRB03KT P6SM BKN014 OVC020 FM251700 15004KT P6SM SCT018 BKN030

Decode

Departure Runways

ID Width Length Bearing (true) Bearing (mag) Surface Threshold Offset Overrun Length
01 151 ft / 46 m 5,997 ft / 1,828 m 32.69° 16.98° Asphalt 0 ft / 0 m 0 ft / 0 m
19 151 ft / 46 m 5,997 ft / 1,828 m 212.70° 196.99° Asphalt 0 ft / 0 m 1,243 ft / 379 m

KCLM

Details ICAO KCLM (CLM)
Name WILLIAM R FAIRCHILD INTL
Region United States
Timezone America/Los_Angeles (UTC-7.0)
Stats Elevation 291 ft / 89 m (AMSL)
Location 48.120829° -123.500070°
Runways 2
Magnetic Variation 15.988° E

METAR

KCLM 242153Z AUTO 32011G19KT 10SM CLR 14/09 A3008 RMK AO2 SLP187 T01440094

Decode

TAF

KCLM 242104Z 2421/2518 30010KT P6SM SKC FM251400 29008KT P6SM SCT008

Decode

Destination Runways

ID Width Length Bearing (true) Bearing (mag) Surface Threshold Offset Overrun Length
08 151 ft / 46 m 6,353 ft / 1,936 m 104.61° 88.62° Asphalt 0 ft / 0 m 0 ft / 0 m
13 49 ft / 15 m 3,244 ft / 989 m 147.64° 131.65° Asphalt 0 ft / 0 m 0 ft / 0 m
26 151 ft / 46 m 6,353 ft / 1,936 m 284.63° 268.64° Asphalt 1,355 ft / 413 m 0 ft / 0 m
31 49 ft / 15 m 3,244 ft / 989 m 327.64° 311.65° Asphalt 0 ft / 0 m 0 ft / 0 m

Approach Navaids

Runway Type Ident Frequency Range Bearing (true) Bearing (mag) Slope Elevation
08 Localiser ICLM 108.90 MHz 18 nm / 33 km 104.64° 88.65° - 291 ft / 89 m (AMSL)
08 Glidescope ICLM 108.90 MHz 10 nm / 19 km 104.62° 88.64° 3.00° 281 ft / 86 m (AMSL)

Popular Alternatives